createdAt,value
2017-10-01T00:00:59.083Z,0
2017-10-01T00:01:59.023Z,0
2017-10-01T00:02:59.081Z,0
2017-10-01T00:03:59.023Z,0
2017-10-01T00:04:59.088Z,0
2017-10-01T00:05:59.086Z,0
2017-10-01T00:06:59.085Z,0
2017-10-01T00:07:59.080Z,0
2017-10-01T00:08:59.090Z,0
2017-10-01T00:09:59.026Z,0
2017-10-01T00:10:59.164Z,0
2017-10-01T00:11:59.097Z,0
2017-10-01T00:12:59.138Z,0
2017-10-01T00:13:59.099Z,0
2017-10-01T00:14:59.096Z,0
2017-10-01T00:15:59.122Z,0
2017-10-01T00:16:59.085Z,0
2017-10-01T00:17:59.149Z,0
2017-10-01T00:18:59.097Z,0
2017-10-01T00:19:59.142Z,0
2017-10-01T00:20:59.094Z,0
2017-10-01T00:21:59.161Z,0
2017-10-01T00:22:59.149Z,0
2017-10-01T00:23:59.145Z,0
2017-10-01T00:24:59.148Z,0
2017-10-01T00:25:59.147Z,0
2017-10-01T00:26:59.098Z,0
2017-10-01T00:27:59.107Z,0
2017-10-01T00:28:59.111Z,0
2017-10-01T00:29:59.103Z,0
2017-10-01T00:30:59.113Z,0
2017-10-01T00:31:59.113Z,0
2017-10-01T00:32:59.071Z,0
2017-10-01T00:33:59.068Z,0
2017-10-01T00:34:59.057Z,0
2017-10-01T00:35:59.044Z,0
2017-10-01T00:36:59.001Z,0
2017-10-01T00:37:59.032Z,0
2017-10-01T00:38:59.199Z,0
2017-10-01T00:39:59.009Z,0
2017-10-01T00:40:59.109Z,0
2017-10-01T00:41:59.162Z,0
2017-10-01T00:42:59.177Z,0
2017-10-01T00:43:59.115Z,0
2017-10-01T00:44:59.157Z,0
2017-10-01T00:45:59.159Z,0
2017-10-01T00:46:59.165Z,0
2017-10-01T00:47:59.115Z,0
2017-10-01T00:48:59.164Z,0
2017-10-01T00:49:59.169Z,0
2017-10-01T00:50:59.185Z,0
2017-10-01T00:51:59.136Z,0
2017-10-01T00:52:59.117Z,0
2017-10-01T00:53:59.121Z,0
2017-10-01T00:54:59.169Z,0
2017-10-01T00:55:59.168Z,0
2017-10-01T00:56:59.075Z,0
2017-10-01T00:57:59.119Z,0
2017-10-01T00:58:59.120Z,0
2017-10-01T00:59:59.125Z,0
2017-10-01T01:00:59.038Z,0
2017-10-01T01:01:59.035Z,0
2017-10-01T01:02:59.038Z,0
2017-10-01T01:03:59.079Z,0
2017-10-01T01:04:59.037Z,0
2017-10-01T01:05:59.081Z,0
2017-10-01T01:06:59.221Z,0
2017-10-01T01:07:59.137Z,0
2017-10-01T01:08:59.071Z,0
2017-10-01T01:09:59.095Z,0
2017-10-01T01:10:59.099Z,0
2017-10-01T01:11:59.144Z,0
2017-10-01T01:12:59.108Z,0
2017-10-01T01:13:59.181Z,0
2017-10-01T01:14:59.113Z,0
2017-10-01T01:15:59.128Z,0
2017-10-01T01:16:59.126Z,0
2017-10-01T01:17:59.168Z,0
2017-10-01T01:18:59.112Z,0
2017-10-01T01:19:59.084Z,0
2017-10-01T01:20:59.061Z,0
2017-10-01T01:21:59.138Z,0
2017-10-01T01:22:59.100Z,0
2017-10-01T01:23:59.072Z,0
2017-10-01T01:24:59.115Z,0
2017-10-01T01:25:59.142Z,0
2017-10-01T01:26:59.159Z,0
2017-10-01T01:27:59.158Z,0
2017-10-01T01:28:59.091Z,0
2017-10-01T01:29:59.078Z,0
2017-10-01T01:30:59.078Z,0
2017-10-01T01:31:59.144Z,0
2017-10-01T01:32:59.106Z,0
2017-10-01T01:33:59.164Z,0
2017-10-01T01:34:59.157Z,0
2017-10-01T01:35:59.079Z,0
2017-10-01T01:36:59.114Z,0
2017-10-01T01:37:59.140Z,0
2017-10-01T01:38:59.113Z,0
2017-10-01T01:39:59.112Z,0
2017-10-01T01:40:59.186Z,0
2017-10-01T01:41:59.163Z,0
2017-10-01T01:42:59.100Z,0
2017-10-01T01:43:59.114Z,0
2017-10-01T01:44:59.128Z,0
2017-10-01T01:45:59.147Z,0
2017-10-01T01:46:59.117Z,0
2017-10-01T01:47:59.161Z,0
2017-10-01T01:48:59.148Z,0
2017-10-01T01:49:59.160Z,0
2017-10-01T01:50:59.127Z,0
2017-10-01T01:51:59.128Z,0
2017-10-01T01:52:59.096Z,0
2017-10-01T01:53:59.102Z,0
2017-10-01T01:54:59.166Z,0
2017-10-01T01:55:59.105Z,0
2017-10-01T01:56:59.188Z,0
2017-10-01T01:57:59.108Z,0
2017-10-01T01:58:59.129Z,0
2017-10-01T01:59:59.154Z,0
2017-10-01T02:00:59.160Z,0
2017-10-01T02:01:59.159Z,0
2017-10-01T02:02:59.157Z,0
2017-10-01T02:03:59.163Z,0
2017-10-01T02:04:59.223Z,0
2017-10-01T02:05:59.168Z,0
2017-10-01T02:06:59.229Z,0
2017-10-01T02:07:59.163Z,0
2017-10-01T02:08:59.213Z,0
2017-10-01T02:09:59.219Z,0
2017-10-01T02:10:59.213Z,0
2017-10-01T02:11:59.168Z,0
2017-10-01T02:12:59.115Z,0
2017-10-01T02:13:59.167Z,0
2017-10-01T02:14:59.163Z,0
2017-10-01T02:15:59.166Z,0
2017-10-01T02:16:59.165Z,0
2017-10-01T02:17:59.167Z,0
2017-10-01T02:18:59.125Z,0
2017-10-01T02:19:59.216Z,0
2017-10-01T02:20:59.144Z,0
2017-10-01T02:21:59.214Z,0
2017-10-01T02:22:59.110Z,0
2017-10-01T02:23:59.207Z,0
2017-10-01T02:24:59.111Z,0
2017-10-01T02:25:59.151Z,0
2017-10-01T02:26:59.178Z,0
2017-10-01T02:27:59.142Z,0
2017-10-01T02:28:59.144Z,0
2017-10-01T02:29:59.154Z,0
2017-10-01T02:30:59.242Z,0
2017-10-01T02:31:59.178Z,0
2017-10-01T02:32:59.350Z,0
2017-10-01T02:33:59.237Z,0
2017-10-01T02:34:59.231Z,0
2017-10-01T02:35:59.226Z,0
2017-10-01T02:36:59.231Z,0
2017-10-01T02:37:59.188Z,0
2017-10-01T02:38:59.227Z,0
2017-10-01T02:39:59.247Z,0
2017-10-01T02:40:59.147Z,0
2017-10-01T02:41:59.194Z,0
2017-10-01T02:42:59.184Z,0
2017-10-01T02:43:59.192Z,0
2017-10-01T02:44:59.228Z,0
2017-10-01T02:45:59.159Z,0
2017-10-01T02:46:59.159Z,0
2017-10-01T02:47:59.182Z,0
2017-10-01T02:48:59.232Z,0
2017-10-01T02:49:59.154Z,0
2017-10-01T02:50:59.191Z,0
2017-10-01T02:51:59.196Z,0
2017-10-01T02:52:59.243Z,0
2017-10-01T02:53:59.243Z,0
2017-10-01T02:54:59.188Z,0
2017-10-01T02:55:59.194Z,0
2017-10-01T02:56:59.201Z,0
2017-10-01T02:57:59.201Z,0
2017-10-01T02:58:59.196Z,0
2017-10-01T02:59:59.203Z,0
2017-10-01T03:00:59.197Z,0
2017-10-01T03:01:59.208Z,0
2017-10-01T03:02:59.195Z,0
2017-10-01T03:03:59.177Z,0
2017-10-01T03:04:59.200Z,0
2017-10-01T03:05:59.196Z,0
2017-10-01T03:06:59.201Z,0
2017-10-01T03:07:59.247Z,0
2017-10-01T03:08:59.206Z,0
2017-10-01T03:09:59.203Z,0
2017-10-01T03:10:59.249Z,0
2017-10-01T03:11:59.412Z,0
2017-10-01T03:12:59.204Z,0
2017-10-01T03:13:59.291Z,0
2017-10-01T03:14:59.205Z,0
2017-10-01T03:15:59.255Z,0
2017-10-01T03:16:59.270Z,0
2017-10-01T03:17:59.204Z,0
2017-10-01T03:18:59.258Z,0
2017-10-01T03:19:59.208Z,0
2017-10-01T03:20:59.210Z,0
2017-10-01T03:21:59.270Z,0
2017-10-01T03:22:59.210Z,0
2017-10-01T03:23:59.255Z,0
2017-10-01T03:24:59.259Z,0
2017-10-01T03:25:59.216Z,0
2017-10-01T03:26:59.257Z,0
2017-10-01T03:27:59.211Z,0
2017-10-01T03:28:59.258Z,0
2017-10-01T03:29:59.215Z,0
2017-10-01T03:30:59.167Z,0
2017-10-01T03:31:59.162Z,0
2017-10-01T03:32:59.176Z,0
2017-10-01T03:33:59.169Z,0
2017-10-01T03:34:59.179Z,0
2017-10-01T03:35:59.172Z,0
2017-10-01T03:36:59.137Z,0
2017-10-01T03:37:59.181Z,0
2017-10-01T03:38:59.155Z,0
2017-10-01T03:39:59.168Z,0
2017-10-01T03:40:59.268Z,0
2017-10-01T03:41:59.270Z,0
2017-10-01T03:42:59.270Z,0
2017-10-01T03:43:59.272Z,0
2017-10-01T03:44:59.287Z,0
2017-10-01T03:45:59.230Z,0
2017-10-01T03:46:59.288Z,0
2017-10-01T03:47:59.221Z,0
2017-10-01T03:48:59.277Z,0
2017-10-01T03:49:59.291Z,0
2017-10-01T03:50:59.274Z,0
2017-10-01T03:51:59.280Z,0
2017-10-01T03:52:59.290Z,0
2017-10-01T03:53:59.302Z,0
2017-10-01T03:54:59.225Z,0
2017-10-01T03:55:59.281Z,0
2017-10-01T03:56:59.229Z,0
2017-10-01T03:57:59.281Z,0
2017-10-01T03:58:59.283Z,0
2017-10-01T03:59:59.281Z,0
2017-10-01T04:00:59.207Z,0
2017-10-01T04:01:59.200Z,0
2017-10-01T04:02:59.198Z,0
2017-10-01T04:03:59.280Z,0
2017-10-01T04:04:59.281Z,0
2017-10-01T04:05:59.199Z,0
2017-10-01T04:06:59.212Z,0
2017-10-01T04:07:59.249Z,0
2017-10-01T04:08:59.281Z,0
2017-10-01T04:09:59.282Z,0
2017-10-01T04:10:59.272Z,0
2017-10-01T04:11:59.272Z,0
2017-10-01T04:12:59.274Z,0
2017-10-01T04:13:59.232Z,0
2017-10-01T04:14:59.232Z,0
2017-10-01T04:15:59.274Z,0
2017-10-01T04:16:59.237Z,0
2017-10-01T04:17:59.213Z,0
2017-10-01T04:18:59.274Z,0
2017-10-01T04:19:59.285Z,0
2017-10-01T04:20:59.252Z,0
2017-10-01T04:21:59.298Z,0
2017-10-01T04:22:59.245Z,0
2017-10-01T04:23:59.296Z,0
2017-10-01T04:24:59.297Z,0
2017-10-01T04:25:59.298Z,0
2017-10-01T04:26:59.253Z,0
2017-10-01T04:27:59.298Z,0
2017-10-01T04:28:59.300Z,0
2017-10-01T04:29:59.314Z,0
2017-10-01T04:30:59.250Z,0
2017-10-01T04:31:59.299Z,0
2017-10-01T04:32:59.248Z,0
2017-10-01T04:33:59.300Z,0
2017-10-01T04:34:59.320Z,0
2017-10-01T04:35:59.257Z,0
2017-10-01T04:36:59.299Z,0
2017-10-01T04:37:59.257Z,0
2017-10-01T04:38:59.323Z,0
2017-10-01T04:39:59.260Z,0
2017-10-01T04:40:59.340Z,0
2017-10-01T04:41:59.261Z,0
2017-10-01T04:42:59.254Z,0
2017-10-01T04:43:59.259Z,0
2017-10-01T04:44:59.331Z,0
2017-10-01T04:45:59.306Z,0
2017-10-01T04:46:59.253Z,0
2017-10-01T04:47:59.305Z,0
2017-10-01T04:48:59.306Z,0
2017-10-01T04:49:59.312Z,0
2017-10-01T04:50:59.233Z,0
2017-10-01T04:51:59.197Z,0
2017-10-01T04:52:59.229Z,0
2017-10-01T04:53:59.227Z,0
2017-10-01T04:54:59.198Z,0
2017-10-01T04:55:59.202Z,0
2017-10-01T04:56:59.284Z,0
2017-10-01T04:57:59.281Z,0
2017-10-01T04:58:59.292Z,0
2017-10-01T04:59:59.233Z,0
2017-10-01T05:00:59.303Z,0
2017-10-01T05:01:59.244Z,0
2017-10-01T05:02:59.240Z,0
2017-10-01T05:03:59.305Z,0
2017-10-01T05:04:59.312Z,0
2017-10-01T05:05:59.243Z,0
2017-10-01T05:06:59.267Z,0
2017-10-01T05:07:59.288Z,0
2017-10-01T05:08:59.245Z,0
2017-10-01T05:09:59.316Z,0
2017-10-01T05:10:59.347Z,0
2017-10-01T05:11:59.277Z,0
2017-10-01T05:12:59.280Z,0
2017-10-01T05:13:59.273Z,0
2017-10-01T05:14:59.327Z,0
2017-10-01T05:15:59.327Z,0
2017-10-01T05:16:59.325Z,0
2017-10-01T05:17:59.347Z,0
2017-10-01T05:18:59.342Z,0
2017-10-01T05:19:59.327Z,0
2017-10-01T05:20:59.280Z,0
2017-10-01T05:21:59.324Z,0
2017-10-01T05:22:59.287Z,0
2017-10-01T05:23:59.231Z,0
2017-10-01T05:24:59.281Z,0
2017-10-01T05:25:59.355Z,0
2017-10-01T05:26:59.301Z,0
2017-10-01T05:27:59.357Z,0
2017-10-01T05:28:59.287Z,0
2017-10-01T05:29:59.334Z,0
2017-10-01T05:30:59.329Z,0
2017-10-01T05:31:59.352Z,0
2017-10-01T05:32:59.288Z,0
2017-10-01T05:33:59.333Z,0
2017-10-01T05:34:59.336Z,0
2017-10-01T05:35:59.337Z,0
2017-10-01T05:36:59.342Z,0
2017-10-01T05:37:59.290Z,0
2017-10-01T05:38:59.290Z,0
2017-10-01T05:39:59.356Z,0
2017-10-01T05:40:59.357Z,0
2017-10-01T05:41:59.323Z,0
2017-10-01T05:42:59.244Z,0
2017-10-01T05:43:59.265Z,0
2017-10-01T05:44:59.258Z,0
2017-10-01T05:45:59.290Z,0
2017-10-01T05:46:59.308Z,0
2017-10-01T05:47:59.345Z,0
2017-10-01T05:48:59.260Z,0
2017-10-01T05:49:59.288Z,0
2017-10-01T05:50:59.328Z,0
2017-10-01T05:51:59.290Z,0
2017-10-01T05:52:59.309Z,0
2017-10-01T05:53:59.332Z,0
2017-10-01T05:54:59.445Z,0
2017-10-01T05:55:59.295Z,0
2017-10-01T05:56:59.245Z,0
2017-10-01T05:57:59.262Z,0
2017-10-01T05:58:59.238Z,0
2017-10-01T05:59:59.247Z,0
2017-10-01T06:00:59.349Z,0
2017-10-01T06:01:59.338Z,0
2017-10-01T06:02:59.252Z,17
2017-10-01T06:03:59.311Z,20
2017-10-01T06:04:59.278Z,21
2017-10-01T06:05:59.274Z,21
2017-10-01T06:06:59.285Z,21
2017-10-01T06:07:59.319Z,22
2017-10-01T06:08:59.260Z,22
2017-10-01T06:09:59.336Z,21
2017-10-01T06:10:59.253Z,19
2017-10-01T06:11:59.309Z,18
2017-10-01T06:12:59.348Z,22
2017-10-01T06:13:59.360Z,27
2017-10-01T06:14:59.291Z,29
2017-10-01T06:15:59.268Z,31
2017-10-01T06:16:59.353Z,34
2017-10-01T06:17:59.306Z,35
2017-10-01T06:18:59.330Z,38
2017-10-01T06:19:59.363Z,39
2017-10-01T06:20:59.359Z,39
2017-10-01T06:21:59.343Z,39
2017-10-01T06:22:59.358Z,40
2017-10-01T06:23:59.384Z,42
2017-10-01T06:24:59.268Z,43
2017-10-01T06:25:59.315Z,41
2017-10-01T06:26:59.345Z,39
2017-10-01T06:27:59.318Z,39
2017-10-01T06:28:59.350Z,41
2017-10-01T06:29:59.322Z,43
2017-10-01T06:30:59.366Z,47
2017-10-01T06:31:59.366Z,51
2017-10-01T06:32:59.335Z,55
2017-10-01T06:33:59.278Z,61
2017-10-01T06:34:59.319Z,61
2017-10-01T06:35:59.375Z,51
2017-10-01T06:36:59.297Z,49
2017-10-01T06:37:59.281Z,52
2017-10-01T06:38:59.320Z,61
2017-10-01T06:39:59.325Z,68
2017-10-01T06:40:59.335Z,72
2017-10-01T06:41:59.330Z,79
2017-10-01T06:42:59.378Z,80
2017-10-01T06:43:59.309Z,85
2017-10-01T06:44:59.281Z,92
2017-10-01T06:45:59.345Z,97
2017-10-01T06:46:59.371Z,95
2017-10-01T06:47:59.381Z,93
2017-10-01T06:48:59.313Z,94
2017-10-01T06:49:59.330Z,98
2017-10-01T06:50:59.378Z,104
2017-10-01T06:51:59.340Z,107
2017-10-01T06:52:59.307Z,112
2017-10-01T06:53:59.299Z,112
2017-10-01T06:54:59.269Z,108
2017-10-01T06:55:59.276Z,109
2017-10-01T06:56:59.300Z,116
2017-10-01T06:57:59.276Z,119
2017-10-01T06:58:59.338Z,116
2017-10-01T06:59:59.299Z,104
2017-10-01T07:00:59.275Z,97
2017-10-01T07:01:59.342Z,99
2017-10-01T07:02:59.381Z,103
2017-10-01T07:03:59.341Z,114
2017-10-01T07:04:59.339Z,131
2017-10-01T07:05:59.313Z,132
2017-10-01T07:06:59.414Z,141
2017-10-01T07:07:59.362Z,137
2017-10-01T07:08:59.343Z,136
2017-10-01T07:09:59.296Z,140
2017-10-01T07:10:59.380Z,210
2017-10-01T07:11:59.340Z,249
2017-10-01T07:12:59.304Z,245
2017-10-01T07:13:59.308Z,236
2017-10-01T07:14:59.313Z,223
2017-10-01T07:15:59.282Z,204
2017-10-01T07:16:59.351Z,219
2017-10-01T07:17:59.311Z,230
2017-10-01T07:18:59.345Z,228
2017-10-01T07:19:59.346Z,271
2017-10-01T07:20:59.286Z,286
2017-10-01T07:21:59.383Z,304
2017-10-01T07:22:59.321Z,289
2017-10-01T07:23:59.319Z,250
2017-10-01T07:24:59.315Z,244
2017-10-01T07:25:59.325Z,241
2017-10-01T07:26:59.369Z,238
2017-10-01T07:27:59.292Z,231
2017-10-01T07:28:59.301Z,221
2017-10-01T07:29:59.293Z,201
2017-10-01T07:30:59.295Z,190
2017-10-01T07:31:59.371Z,186
2017-10-01T07:32:59.361Z,178
2017-10-01T07:33:59.402Z,171
2017-10-01T07:34:59.359Z,158
2017-10-01T07:35:59.375Z,139
2017-10-01T07:36:59.411Z,119
2017-10-01T07:37:59.363Z,111
2017-10-01T07:38:59.430Z,116
2017-10-01T07:39:59.404Z,116
2017-10-01T07:40:59.363Z,119
2017-10-01T07:41:59.376Z,123
2017-10-01T07:42:59.329Z,128
2017-10-01T07:43:59.342Z,142
2017-10-01T07:44:59.362Z,154
2017-10-01T07:45:59.307Z,163
2017-10-01T07:46:59.403Z,167
2017-10-01T07:47:59.334Z,165
2017-10-01T07:48:59.309Z,157
2017-10-01T07:49:59.375Z,154
2017-10-01T07:50:59.358Z,156
2017-10-01T07:51:59.388Z,165
2017-10-01T07:52:59.376Z,176
2017-10-01T07:53:59.399Z,188
2017-10-01T07:54:59.404Z,197
2017-10-01T07:55:59.380Z,212
2017-10-01T07:56:59.335Z,227
2017-10-01T07:57:59.366Z,231
2017-10-01T07:58:59.343Z,230
2017-10-01T07:59:59.346Z,233
2017-10-01T08:00:59.337Z,242
2017-10-01T08:01:59.247Z,228
2017-10-01T08:02:59.242Z,220
2017-10-01T08:03:59.255Z,226
2017-10-01T08:04:59.242Z,232
2017-10-01T08:05:59.256Z,239
2017-10-01T08:06:59.308Z,251
2017-10-01T08:07:59.319Z,248
2017-10-01T08:08:59.289Z,244
2017-10-01T08:09:59.325Z,241
2017-10-01T08:10:59.292Z,243
2017-10-01T08:11:59.427Z,261
2017-10-01T08:12:59.385Z,244
2017-10-01T08:13:59.389Z,244
2017-10-01T08:14:59.425Z,226
2017-10-01T08:15:59.431Z,210
2017-10-01T08:16:59.429Z,221
2017-10-01T08:17:59.435Z,222
2017-10-01T08:18:59.451Z,216
2017-10-01T08:19:59.432Z,263
2017-10-01T08:20:59.381Z,236
2017-10-01T08:21:59.333Z,288
2017-10-01T08:22:59.381Z,227
2017-10-01T08:23:59.327Z,398
2017-10-01T08:24:59.418Z,437
2017-10-01T08:25:59.351Z,477
2017-10-01T08:26:59.401Z,424
2017-10-01T08:27:59.428Z,450
2017-10-01T08:28:59.394Z,328
2017-10-01T08:29:59.398Z,225
2017-10-01T08:30:59.384Z,222
2017-10-01T08:31:59.394Z,205
2017-10-01T08:32:59.442Z,173
2017-10-01T08:33:59.439Z,165
2017-10-01T08:34:59.443Z,155
2017-10-01T08:35:59.348Z,154
2017-10-01T08:36:59.442Z,145
2017-10-01T08:37:59.397Z,135
2017-10-01T08:38:59.442Z,115
2017-10-01T08:39:59.393Z,136
2017-10-01T08:40:59.351Z,147
2017-10-01T08:41:59.469Z,173
2017-10-01T08:42:59.431Z,171
2017-10-01T08:43:59.400Z,163
2017-10-01T08:44:59.351Z,158
2017-10-01T08:45:59.446Z,164
2017-10-01T08:46:59.475Z,148
2017-10-01T08:47:59.449Z,132
2017-10-01T08:48:59.356Z,137
2017-10-01T08:49:59.445Z,156
2017-10-01T08:50:59.449Z,208
2017-10-01T08:51:59.448Z,263
2017-10-01T08:52:59.358Z,262
2017-10-01T08:53:59.421Z,223
2017-10-01T08:54:59.408Z,218
2017-10-01T08:55:59.456Z,203
2017-10-01T08:56:59.422Z,180
2017-10-01T08:57:59.405Z,157
2017-10-01T08:58:59.421Z,141
2017-10-01T08:59:59.409Z,139
2017-10-01T09:00:59.404Z,145
2017-10-01T09:01:59.395Z,155
2017-10-01T09:02:59.473Z,161
2017-10-01T09:03:59.459Z,170
2017-10-01T09:04:59.414Z,224
2017-10-01T09:05:59.413Z,294
2017-10-01T09:06:59.462Z,322
2017-10-01T09:07:59.479Z,341
2017-10-01T09:08:59.458Z,727
2017-10-01T09:09:59.418Z,368
2017-10-01T09:10:59.394Z,684
2017-10-01T09:11:59.483Z,726
2017-10-01T09:12:59.444Z,758
2017-10-01T09:13:59.488Z,799
2017-10-01T09:14:59.459Z,722
2017-10-01T09:15:59.466Z,739
2017-10-01T09:16:59.424Z,691
2017-10-01T09:17:59.483Z,656
2017-10-01T09:18:59.463Z,648
2017-10-01T09:19:59.422Z,155
2017-10-01T09:20:59.422Z,152
2017-10-01T09:21:59.401Z,457
2017-10-01T09:22:59.425Z,661
2017-10-01T09:23:59.403Z,615
2017-10-01T09:24:59.474Z,691
2017-10-01T09:25:59.478Z,691
2017-10-01T09:26:59.452Z,666
2017-10-01T09:27:59.423Z,644
2017-10-01T09:28:59.393Z,679
2017-10-01T09:29:59.474Z,682
2017-10-01T09:30:59.432Z,693
2017-10-01T09:31:59.428Z,692
2017-10-01T09:32:59.424Z,705
2017-10-01T09:33:59.443Z,698
2017-10-01T09:34:59.497Z,701
2017-10-01T09:35:59.476Z,705
2017-10-01T09:36:59.429Z,709
2017-10-01T09:37:59.430Z,457
2017-10-01T09:38:59.477Z,697
2017-10-01T09:39:59.432Z,687
2017-10-01T09:40:59.476Z,247
2017-10-01T09:41:59.431Z,150
2017-10-01T09:42:59.434Z,140
2017-10-01T09:43:59.383Z,157
2017-10-01T09:44:59.416Z,624
2017-10-01T09:45:59.388Z,610
2017-10-01T09:46:59.387Z,815
2017-10-01T09:47:59.435Z,245
2017-10-01T09:48:59.483Z,211
2017-10-01T09:49:59.487Z,195
2017-10-01T09:50:59.483Z,202
2017-10-01T09:51:59.380Z,202
2017-10-01T09:52:59.483Z,232
2017-10-01T09:53:59.421Z,233
2017-10-01T09:54:59.439Z,338
2017-10-01T09:55:59.438Z,828
2017-10-01T09:56:59.445Z,635
2017-10-01T09:57:59.495Z,810
2017-10-01T09:58:59.449Z,796
2017-10-01T09:59:59.444Z,827
2017-10-01T10:00:59.490Z,847
2017-10-01T10:01:59.472Z,808
2017-10-01T10:02:59.470Z,840
2017-10-01T10:03:59.413Z,823
2017-10-01T10:04:59.430Z,815
2017-10-01T10:05:59.496Z,701
2017-10-01T10:06:59.492Z,350
2017-10-01T10:07:59.452Z,812
2017-10-01T10:08:59.489Z,805
2017-10-01T10:09:59.458Z,694
2017-10-01T10:10:59.492Z,748
2017-10-01T10:11:59.504Z,761
2017-10-01T10:12:59.458Z,796
2017-10-01T10:13:59.608Z,764
2017-10-01T10:14:59.452Z,810
2017-10-01T10:15:59.530Z,340
2017-10-01T10:16:59.493Z,721
2017-10-01T10:17:59.402Z,777
2017-10-01T10:18:59.440Z,845
2017-10-01T10:19:59.438Z,846
2017-10-01T10:20:59.464Z,837
2017-10-01T10:21:59.466Z,817
2017-10-01T10:22:59.472Z,694
2017-10-01T10:23:59.470Z,768
2017-10-01T10:24:59.469Z,380
2017-10-01T10:25:59.498Z,778
2017-10-01T10:26:59.451Z,677
2017-10-01T10:27:59.486Z,677
2017-10-01T10:28:59.446Z,754
2017-10-01T10:29:59.463Z,766
2017-10-01T10:30:59.477Z,775
2017-10-01T10:31:59.414Z,730
2017-10-01T10:32:59.463Z,743
2017-10-01T10:33:59.464Z,188
2017-10-01T10:34:59.514Z,310
2017-10-01T10:35:59.476Z,301
2017-10-01T10:36:59.493Z,216
2017-10-01T10:37:59.465Z,711
2017-10-01T10:38:59.421Z,835
2017-10-01T10:39:59.472Z,797
2017-10-01T10:40:59.452Z,253
2017-10-01T10:41:59.480Z,188
2017-10-01T10:42:59.416Z,196
2017-10-01T10:43:59.451Z,222
2017-10-01T10:44:59.448Z,428
2017-10-01T10:45:59.503Z,238
2017-10-01T10:46:59.431Z,246
2017-10-01T10:47:59.414Z,423
2017-10-01T10:48:59.449Z,790
2017-10-01T10:49:59.513Z,818
2017-10-01T10:50:59.515Z,833
2017-10-01T10:51:59.410Z,703
2017-10-01T10:52:59.412Z,510
2017-10-01T10:53:59.436Z,187
2017-10-01T10:54:59.440Z,194
2017-10-01T10:55:59.476Z,250
2017-10-01T10:56:59.471Z,788
2017-10-01T10:57:59.473Z,817
2017-10-01T10:58:59.476Z,817
2017-10-01T10:59:59.475Z,190
2017-10-01T11:00:59.441Z,796
2017-10-01T11:01:59.477Z,456
2017-10-01T11:02:59.440Z,596
2017-10-01T11:03:59.477Z,825
2017-10-01T11:04:59.414Z,203
2017-10-01T11:05:59.417Z,649
2017-10-01T11:06:59.445Z,278
2017-10-01T11:07:59.419Z,202
2017-10-01T11:08:59.482Z,319
2017-10-01T11:09:59.481Z,786
2017-10-01T11:10:59.480Z,802
2017-10-01T11:11:59.527Z,812
2017-10-01T11:12:59.467Z,795
2017-10-01T11:13:59.467Z,798
2017-10-01T11:14:59.454Z,793
2017-10-01T11:15:59.428Z,786
2017-10-01T11:16:59.439Z,783
2017-10-01T11:17:59.457Z,780
2017-10-01T11:18:59.491Z,772
2017-10-01T11:19:59.536Z,777
2017-10-01T11:20:59.490Z,763
2017-10-01T11:21:59.552Z,755
2017-10-01T11:22:59.437Z,743
2017-10-01T11:23:59.488Z,764
2017-10-01T11:24:59.491Z,760
2017-10-01T11:25:59.495Z,759
2017-10-01T11:26:59.537Z,763
2017-10-01T11:27:59.476Z,766
2017-10-01T11:28:59.501Z,761
2017-10-01T11:29:59.480Z,767
2017-10-01T11:30:59.466Z,759
2017-10-01T11:31:59.497Z,743
2017-10-01T11:32:59.512Z,753
2017-10-01T11:33:59.548Z,745
2017-10-01T11:34:59.512Z,743
2017-10-01T11:35:59.510Z,738
2017-10-01T11:36:59.481Z,717
2017-10-01T11:37:59.475Z,717
2017-10-01T11:38:59.512Z,726
2017-10-01T11:39:59.501Z,736
2017-10-01T11:40:59.537Z,737
2017-10-01T11:41:59.529Z,725
2017-10-01T11:42:59.557Z,723
2017-10-01T11:43:59.546Z,739
2017-10-01T11:44:59.451Z,736
2017-10-01T11:45:59.506Z,746
2017-10-01T11:46:59.569Z,736
2017-10-01T11:47:59.509Z,737
2017-10-01T11:48:59.491Z,715
2017-10-01T11:49:59.504Z,728
2017-10-01T11:50:59.518Z,734
2017-10-01T11:51:59.550Z,742
2017-10-01T11:52:59.522Z,331
2017-10-01T11:53:59.509Z,743
2017-10-01T11:54:59.523Z,739
2017-10-01T11:55:59.514Z,732
2017-10-01T11:56:59.521Z,719
2017-10-01T11:57:59.524Z,722
2017-10-01T11:58:59.491Z,722
2017-10-01T11:59:59.557Z,715
2017-10-01T12:00:59.479Z,720
2017-10-01T12:01:59.549Z,715
2017-10-01T12:02:59.551Z,707
2017-10-01T12:03:59.523Z,726
2017-10-01T12:04:59.531Z,712
2017-10-01T12:05:59.557Z,712
2017-10-01T12:06:59.473Z,729
2017-10-01T12:07:59.470Z,693
2017-10-01T12:08:59.494Z,734
2017-10-01T12:09:59.464Z,728
2017-10-01T12:10:59.555Z,118
2017-10-01T12:11:59.462Z,149
2017-10-01T12:12:59.493Z,714
2017-10-01T12:13:59.464Z,736
2017-10-01T12:14:59.538Z,549
2017-10-01T12:15:59.557Z,705
2017-10-01T12:16:59.530Z,712
2017-10-01T12:17:59.506Z,714
2017-10-01T12:18:59.523Z,707
2017-10-01T12:19:59.543Z,686
2017-10-01T12:20:59.506Z,697
2017-10-01T12:21:59.456Z,699
2017-10-01T12:22:59.460Z,704
2017-10-01T12:23:59.462Z,705
2017-10-01T12:24:59.435Z,600
2017-10-01T12:25:59.470Z,588
2017-10-01T12:26:59.371Z,673
2017-10-01T12:27:59.459Z,694
2017-10-01T12:28:59.419Z,687
2017-10-01T12:29:59.452Z,683
2017-10-01T12:30:59.468Z,688
2017-10-01T12:31:59.575Z,678
2017-10-01T12:32:59.556Z,676
2017-10-01T12:33:59.579Z,659
2017-10-01T12:34:59.545Z,676
2017-10-01T12:35:59.498Z,676
2017-10-01T12:36:59.548Z,680
2017-10-01T12:37:59.544Z,672
2017-10-01T12:38:59.537Z,661
2017-10-01T12:39:59.518Z,666
2017-10-01T12:40:59.614Z,673
2017-10-01T12:41:59.501Z,675
2017-10-01T12:42:59.536Z,671
2017-10-01T12:43:59.480Z,670
2017-10-01T12:44:59.505Z,657
2017-10-01T12:45:59.477Z,652
2017-10-01T12:46:59.541Z,660
2017-10-01T12:47:59.479Z,657
2017-10-01T12:48:59.507Z,657
2017-10-01T12:49:59.480Z,659
2017-10-01T12:50:59.504Z,651
2017-10-01T12:51:59.541Z,641
2017-10-01T12:52:59.559Z,644
2017-10-01T12:53:59.485Z,649
2017-10-01T12:54:59.587Z,647
2017-10-01T12:55:59.526Z,640
2017-10-01T12:56:59.588Z,630
2017-10-01T12:57:59.587Z,628
2017-10-01T12:58:59.589Z,626
2017-10-01T12:59:59.493Z,635
2017-10-01T13:00:59.585Z,628
2017-10-01T13:01:59.545Z,624
2017-10-01T13:02:59.550Z,621
2017-10-01T13:03:59.489Z,498
2017-10-01T13:04:59.514Z,605
2017-10-01T13:05:59.489Z,613
2017-10-01T13:06:59.555Z,615
2017-10-01T13:07:59.545Z,614
2017-10-01T13:08:59.492Z,617
2017-10-01T13:09:59.491Z,616
2017-10-01T13:10:59.553Z,611
2017-10-01T13:11:59.593Z,615
2017-10-01T13:12:59.571Z,612
2017-10-01T13:13:59.562Z,609
2017-10-01T13:14:59.546Z,608
2017-10-01T13:15:59.583Z,598
2017-10-01T13:16:59.566Z,596
2017-10-01T13:17:59.571Z,602
2017-10-01T13:18:59.541Z,598
2017-10-01T13:19:59.571Z,595
2017-10-01T13:20:59.661Z,586
2017-10-01T13:21:59.509Z,586
2017-10-01T13:22:59.570Z,586
2017-10-01T13:23:59.457Z,595
2017-10-01T13:24:59.525Z,587
2017-10-01T13:25:59.478Z,588
2017-10-01T13:26:59.529Z,586
2017-10-01T13:27:59.483Z,575
2017-10-01T13:28:59.532Z,581
2017-10-01T13:29:59.511Z,580
2017-10-01T13:30:59.506Z,579
2017-10-01T13:31:59.465Z,574
2017-10-01T13:32:59.618Z,562
2017-10-01T13:33:59.619Z,564
2017-10-01T13:34:59.572Z,572
2017-10-01T13:35:59.575Z,567
2017-10-01T13:36:59.624Z,566
2017-10-01T13:37:59.620Z,560
2017-10-01T13:38:59.622Z,549
2017-10-01T13:39:59.616Z,153
2017-10-01T13:41:59.556Z,529
2017-10-01T13:42:59.517Z,559
2017-10-01T13:43:59.574Z,565
2017-10-01T13:44:59.580Z,568
2017-10-01T13:45:59.552Z,549
2017-10-01T13:46:59.580Z,555
2017-10-01T13:47:59.547Z,567
2017-10-01T13:48:59.592Z,217
2017-10-01T13:49:59.625Z,135
2017-10-01T13:50:59.556Z,156
2017-10-01T13:51:59.563Z,573
2017-10-01T13:52:59.652Z,231
2017-10-01T13:53:59.633Z,347
2017-10-01T13:54:59.564Z,402
2017-10-01T13:55:59.629Z,551
2017-10-01T13:56:59.632Z,561
2017-10-01T13:57:59.658Z,451
2017-10-01T13:58:59.637Z,309
2017-10-01T13:59:59.631Z,122
2017-10-01T14:00:59.616Z,150
2017-10-01T14:01:59.548Z,538
2017-10-01T14:02:59.554Z,156
2017-10-01T14:03:59.550Z,386
2017-10-01T14:04:59.610Z,227
2017-10-01T14:05:59.524Z,341
2017-10-01T14:06:59.532Z,507
2017-10-01T14:07:59.528Z,506
2017-10-01T14:08:59.525Z,510
2017-10-01T14:09:59.526Z,493
2017-10-01T14:10:59.526Z,484
2017-10-01T14:11:59.530Z,480
2017-10-01T14:12:59.563Z,478
2017-10-01T14:13:59.631Z,443